createdAt,value
2022-10-29T00:09:39.092Z,17.08
2022-10-29T00:31:25.984Z,16.18
2022-10-29T00:53:11.969Z,17.38
2022-10-29T01:15:09.149Z,15.89
2022-10-29T01:36:59.482Z,17.19
2022-10-29T01:58:47.834Z,18.26
2022-10-29T02:20:33.722Z,15.42
2022-10-29T02:42:19.431Z,16.74
2022-10-29T03:04:05.326Z,17.82
2022-10-29T03:25:56.052Z,18.21
2022-10-29T03:47:42.474Z,16.20
2022-10-29T04:09:28.375Z,17.98
2022-10-29T04:31:15.200Z,16.69
2022-10-29T04:56:06.920Z,18.48
2022-10-29T05:17:52.850Z,17.39
2022-10-29T05:39:38.796Z,18.47
2022-10-29T06:01:24.552Z,17.58
2022-10-29T06:23:10.532Z,18.61
2022-10-29T06:44:56.202Z,17.05
2022-10-29T07:06:41.919Z,18.32
2022-10-29T07:28:27.740Z,17.21
2022-10-29T07:50:13.958Z,19.36
2022-10-29T08:11:59.771Z,18.82
2022-10-29T08:45:05.435Z,19.85
2022-10-29T09:07:02.804Z,21.11
2022-10-29T09:29:15.076Z,24.87
2022-10-29T09:51:10.712Z,30.42
2022-10-29T10:13:01.360Z,27.67
2022-10-29T10:34:44.322Z,24.91
2022-10-29T10:56:27.400Z,23.32
2022-10-29T11:18:18.361Z,22.21
2022-10-29T11:40:05.415Z,22.04
2022-10-29T12:01:57.618Z,22.24
2022-10-29T12:23:54.362Z,22.11
2022-10-29T12:46:19.079Z,21.82
2022-10-29T13:08:26.465Z,21.77
2022-10-29T13:30:21.182Z,21.50
2022-10-29T13:52:11.386Z,21.66
2022-10-29T14:13:58.746Z,21.36
2022-10-29T14:35:41.986Z,21.11
2022-10-29T14:57:27.920Z,20.72
2022-10-29T15:19:15.759Z,22.98
2022-10-29T15:41:30.748Z,21.93
2022-10-29T16:03:16.562Z,19.43
2022-10-29T16:24:59.581Z,21.53
2022-10-29T16:46:42.735Z,20.76
2022-10-29T17:26:03.566Z,22.87
2022-10-29T17:47:49.615Z,21.36
2022-10-29T18:09:35.501Z,21.08
2022-10-29T18:31:21.778Z,21.90
2022-10-29T18:53:07.614Z,19.23
2022-10-29T19:14:53.648Z,21.14
2022-10-29T19:36:40.731Z,20.53
2022-10-29T19:58:28.650Z,18.08
2022-10-29T20:20:17.304Z,19.17
2022-10-29T20:42:03.416Z,20.68
2022-10-29T21:03:51.471Z,18.85
2022-10-29T21:25:37.275Z,19.20
2022-10-29T21:47:22.962Z,20.23
2022-10-29T22:09:10.059Z,20.28
2022-10-29T22:31:01.914Z,20.42
2022-10-29T22:52:47.784Z,18.22
2022-10-29T23:14:33.460Z,18.85
2022-10-29T23:36:20.501Z,20.22
2022-10-29T23:58:06.493Z,18.58
